sensor_id;sensor_type;location;lat;lon;timestamp;temperature;humidity
62991;DHT22;49084;48.204;16.202;2023-06-24T00:01:35;17.40;99.90
62991;DHT22;49084;48.204;16.202;2023-06-24T00:04:02;17.30;99.90
62991;DHT22;49084;48.204;16.202;2023-06-24T00:06:28;17.30;99.90
62991;DHT22;49084;48.204;16.202;2023-06-24T00:08:53;17.30;99.90
62991;DHT22;49084;48.204;16.202;2023-06-24T00:11:30;17.30;99.90
62991;DHT22;49084;48.204;16.202;2023-06-24T00:13:55;17.20;99.90
62991;DHT22;49084;48.204;16.202;2023-06-24T00:16:22;17.20;99.90
62991;DHT22;49084;48.204;16.202;2023-06-24T00:18:56;17.20;99.90
62991;DHT22;49084;48.204;16.202;2023-06-24T00:21:27;17.10;99.90
62991;DHT22;49084;48.204;16.202;2023-06-24T00:24:00;17.10;99.90
62991;DHT22;49084;48.204;16.202;2023-06-24T00:26:30;17.10;99.90
62991;DHT22;49084;48.204;16.202;2023-06-24T00:28:57;17.20;99.90
62991;DHT22;49084;48.204;16.202;2023-06-24T00:31:23;17.20;99.90
62991;DHT22;49084;48.204;16.202;2023-06-24T00:33:48;17.10;99.90
62991;DHT22;49084;48.204;16.202;2023-06-24T00:36:15;17.10;99.90
62991;DHT22;49084;48.204;16.202;2023-06-24T00:38:40;17.10;99.90
62991;DHT22;49084;48.204;16.202;2023-06-24T00:41:07;17.10;99.90
62991;DHT22;49084;48.204;16.202;2023-06-24T00:43:33;17.10;99.90
62991;DHT22;49084;48.204;16.202;2023-06-24T00:45:59;17.10;99.90
62991;DHT22;49084;48.204;16.202;2023-06-24T00:48:25;17.10;99.90
62991;DHT22;49084;48.204;16.202;2023-06-24T00:50:51;17.10;99.90
62991;DHT22;49084;48.204;16.202;2023-06-24T00:53:17;17.10;99.90
62991;DHT22;49084;48.204;16.202;2023-06-24T00:55:46;17.10;99.90
62991;DHT22;49084;48.204;16.202;2023-06-24T00:58:13;17.10;99.90
62991;DHT22;49084;48.204;16.202;2023-06-24T01:00:44;17.10;99.90
62991;DHT22;49084;48.204;16.202;2023-06-24T01:03:11;17.00;99.90
62991;DHT22;49084;48.204;16.202;2023-06-24T01:05:39;17.00;99.90
62991;DHT22;49084;48.204;16.202;2023-06-24T01:08:06;17.00;99.90
62991;DHT22;49084;48.204;16.202;2023-06-24T01:10:32;17.00;99.90
62991;DHT22;49084;48.204;16.202;2023-06-24T01:12:57;17.00;99.90
62991;DHT22;49084;48.204;16.202;2023-06-24T01:15:23;17.00;99.90
62991;DHT22;49084;48.204;16.202;2023-06-24T01:18:10;17.00;99.90
62991;DHT22;49084;48.204;16.202;2023-06-24T01:21:01;17.00;99.90
62991;DHT22;49084;48.204;16.202;2023-06-24T01:29:09;17.00;99.90
62991;DHT22;49084;48.204;16.202;2023-06-24T01:36:43;17.00;99.90
62991;DHT22;49084;48.204;16.202;2023-06-24T01:39:15;17.00;99.90
62991;DHT22;49084;48.204;16.202;2023-06-24T01:41:49;17.00;99.90
62991;DHT22;49084;48.204;16.202;2023-06-24T01:44:16;17.00;99.90
62991;DHT22;49084;48.204;16.202;2023-06-24T01:46:46;17.00;99.90
62991;DHT22;49084;48.204;16.202;2023-06-24T01:49:14;17.00;99.90
62991;DHT22;49084;48.204;16.202;2023-06-24T01:51:42;17.00;99.90
62991;DHT22;49084;48.204;16.202;2023-06-24T01:54:13;17.00;99.90
62991;DHT22;49084;48.204;16.202;2023-06-24T01:56:42;17.00;99.90
62991;DHT22;49084;48.204;16.202;2023-06-24T01:59:09;17.00;99.90
62991;DHT22;49084;48.204;16.202;2023-06-24T02:01:37;17.00;99.90
62991;DHT22;49084;48.204;16.202;2023-06-24T02:04:04;17.00;99.90
62991;DHT22;49084;48.204;16.202;2023-06-24T02:06:32;17.00;99.90
62991;DHT22;49084;48.204;16.202;2023-06-24T02:08:59;17.00;99.90
62991;DHT22;49084;48.204;16.202;2023-06-24T02:11:28;17.00;99.90
62991;DHT22;49084;48.204;16.202;2023-06-24T02:13:55;16.90;99.90
62991;DHT22;49084;48.204;16.202;2023-06-24T02:16:23;17.00;99.90
62991;DHT22;49084;48.204;16.202;2023-06-24T02:18:50;16.90;99.90
62991;DHT22;49084;48.204;16.202;2023-06-24T02:21:18;16.90;99.90
62991;DHT22;49084;48.204;16.202;2023-06-24T02:23:46;16.90;99.90
62991;DHT22;49084;48.204;16.202;2023-06-24T02:26:13;16.80;99.90
62991;DHT22;49084;48.204;16.202;2023-06-24T02:28:40;16.80;99.90
62991;DHT22;49084;48.204;16.202;2023-06-24T02:31:08;16.80;99.90
62991;DHT22;49084;48.204;16.202;2023-06-24T02:33:34;16.80;99.90
62991;DHT22;49084;48.204;16.202;2023-06-24T02:36:00;16.80;99.90
62991;DHT22;49084;48.204;16.202;2023-06-24T02:38:26;16.80;99.90
62991;DHT22;49084;48.204;16.202;2023-06-24T02:40:52;16.70;99.90
62991;DHT22;49084;48.204;16.202;2023-06-24T02:43:18;16.70;99.90
62991;DHT22;49084;48.204;16.202;2023-06-24T02:45:45;16.70;99.90
62991;DHT22;49084;48.204;16.202;2023-06-24T02:48:11;16.60;99.90
62991;DHT22;49084;48.204;16.202;2023-06-24T02:50:39;16.60;99.90
62991;DHT22;49084;48.204;16.202;2023-06-24T02:53:07;16.60;99.90
62991;DHT22;49084;48.204;16.202;2023-06-24T02:55:33;16.50;99.90
62991;DHT22;49084;48.204;16.202;2023-06-24T02:58:01;16.40;99.90
62991;DHT22;49084;48.204;16.202;2023-06-24T03:00:27;16.40;99.90
62991;DHT22;49084;48.204;16.202;2023-06-24T03:02:55;16.30;99.90
62991;DHT22;49084;48.204;16.202;2023-06-24T03:05:21;16.30;99.90
62991;DHT22;49084;48.204;16.202;2023-06-24T03:07:50;16.30;99.90
62991;DHT22;49084;48.204;16.202;2023-06-24T03:10:16;16.30;99.90
62991;DHT22;49084;48.204;16.202;2023-06-24T03:12:42;16.20;99.90
62991;DHT22;49084;48.204;16.202;2023-06-24T03:15:08;16.20;99.90
62991;DHT22;49084;48.204;16.202;2023-06-24T03:17:35;16.10;99.90
62991;DHT22;49084;48.204;16.202;2023-06-24T03:20:01;16.10;99.90
62991;DHT22;49084;48.204;16.202;2023-06-24T03:22:26;16.00;99.90
62991;DHT22;49084;48.204;16.202;2023-06-24T03:24:52;16.00;99.90
62991;DHT22;49084;48.204;16.202;2023-06-24T03:27:18;15.90;99.90
62991;DHT22;49084;48.204;16.202;2023-06-24T03:29:44;15.80;99.90
62991;DHT22;49084;48.204;16.202;2023-06-24T03:32:10;15.80;99.90
62991;DHT22;49084;48.204;16.202;2023-06-24T03:34:35;15.80;99.90
62991;DHT22;49084;48.204;16.202;2023-06-24T03:37:01;15.60;99.90
62991;DHT22;49084;48.204;16.202;2023-06-24T03:39:29;15.60;99.90
62991;DHT22;49084;48.204;16.202;2023-06-24T03:41:55;15.60;99.90
62991;DHT22;49084;48.204;16.202;2023-06-24T03:44:20;15.50;99.90
62991;DHT22;49084;48.204;16.202;2023-06-24T03:46:46;15.50;99.90
62991;DHT22;49084;48.204;16.202;2023-06-24T03:49:12;15.40;99.90
62991;DHT22;49084;48.204;16.202;2023-06-24T03:51:37;15.40;99.90
62991;DHT22;49084;48.204;16.202;2023-06-24T03:54:03;15.30;99.90
62991;DHT22;49084;48.204;16.202;2023-06-24T03:56:28;15.30;99.90
62991;DHT22;49084;48.204;16.202;2023-06-24T03:58:54;15.30;99.90
62991;DHT22;49084;48.204;16.202;2023-06-24T04:01:20;15.30;99.90
62991;DHT22;49084;48.204;16.202;2023-06-24T04:03:46;15.30;99.90
62991;DHT22;49084;48.204;16.202;2023-06-24T04:06:12;15.30;99.90
62991;DHT22;49084;48.204;16.202;2023-06-24T04:08:37;15.20;99.90
62991;DHT22;49084;48.204;16.202;2023-06-24T04:11:09;15.20;99.90
62991;DHT22;49084;48.204;16.202;2023-06-24T04:13:35;15.20;99.90
62991;DHT22;49084;48.204;16.202;2023-06-24T04:16:01;15.20;99.90
62991;DHT22;49084;48.204;16.202;2023-06-24T04:18:27;15.30;99.90
62991;DHT22;49084;48.204;16.202;2023-06-24T04:20:53;15.30;99.90
62991;DHT22;49084;48.204;16.202;2023-06-24T04:23:19;15.50;99.90
62991;DHT22;49084;48.204;16.202;2023-06-24T04:25:44;15.50;99.90
62991;DHT22;49084;48.204;16.202;2023-06-24T04:28:10;15.50;99.90
62991;DHT22;49084;48.204;16.202;2023-06-24T04:30:36;15.60;99.90
62991;DHT22;49084;48.204;16.202;2023-06-24T04:33:04;15.50;99.90
62991;DHT22;49084;48.204;16.202;2023-06-24T04:35:30;15.50;99.90
62991;DHT22;49084;48.204;16.202;2023-06-24T04:37:56;15.60;99.90
62991;DHT22;49084;48.204;16.202;2023-06-24T04:40:22;15.60;99.90
62991;DHT22;49084;48.204;16.202;2023-06-24T04:42:54;15.70;99.90
62991;DHT22;49084;48.204;16.202;2023-06-24T04:45:20;15.80;99.90
62991;DHT22;49084;48.204;16.202;2023-06-24T04:47:46;15.80;99.90
62991;DHT22;49084;48.204;16.202;2023-06-24T04:50:12;15.80;99.90
62991;DHT22;49084;48.204;16.202;2023-06-24T04:52:38;15.80;99.90
62991;DHT22;49084;48.204;16.202;2023-06-24T04:55:05;15.80;99.90
62991;DHT22;49084;48.204;16.202;2023-06-24T04:57:32;15.90;99.90
62991;DHT22;49084;48.204;16.202;2023-06-24T04:59:58;16.00;99.90
62991;DHT22;49084;48.204;16.202;2023-06-24T05:02:24;16.00;99.90
62991;DHT22;49084;48.204;16.202;2023-06-24T05:04:52;16.00;99.90
62991;DHT22;49084;48.204;16.202;2023-06-24T05:07:18;15.90;99.90
62991;DHT22;49084;48.204;16.202;2023-06-24T05:09:47;15.80;99.90
62991;DHT22;49084;48.204;16.202;2023-06-24T05:12:13;15.80;99.90
62991;DHT22;49084;48.204;16.202;2023-06-24T05:14:39;15.80;99.90
62991;DHT22;49084;48.204;16.202;2023-06-24T05:17:05;15.80;99.90
62991;DHT22;49084;48.204;16.202;2023-06-24T05:19:30;15.80;99.90
62991;DHT22;49084;48.204;16.202;2023-06-24T05:21:56;15.80;99.90
62991;DHT22;49084;48.204;16.202;2023-06-24T05:24:22;15.80;99.90
62991;DHT22;49084;48.204;16.202;2023-06-24T05:26:49;15.90;99.90
62991;DHT22;49084;48.204;16.202;2023-06-24T05:29:15;15.90;99.90
62991;DHT22;49084;48.204;16.202;2023-06-24T05:31:41;15.90;99.90
62991;DHT22;49084;48.204;16.202;2023-06-24T05:34:07;15.90;99.90
62991;DHT22;49084;48.204;16.202;2023-06-24T05:36:33;15.90;99.90
62991;DHT22;49084;48.204;16.202;2023-06-24T05:38:59;15.90;99.90
62991;DHT22;49084;48.204;16.202;2023-06-24T05:41:25;15.80;99.90
62991;DHT22;49084;48.204;16.202;2023-06-24T05:44:01;15.80;99.90
62991;DHT22;49084;48.204;16.202;2023-06-24T05:46:29;15.70;99.90
62991;DHT22;49084;48.204;16.202;2023-06-24T05:48:54;15.60;99.90
62991;DHT22;49084;48.204;16.202;2023-06-24T05:51:20;15.70;99.90
62991;DHT22;49084;48.204;16.202;2023-06-24T05:53:46;15.60;99.90
62991;DHT22;49084;48.204;16.202;2023-06-24T05:56:11;15.60;99.90
62991;DHT22;49084;48.204;16.202;2023-06-24T05:58:37;15.50;99.90
62991;DHT22;49084;48.204;16.202;2023-06-24T06:01:02;15.50;99.90
62991;DHT22;49084;48.204;16.202;2023-06-24T06:03:28;15.50;99.90
62991;DHT22;49084;48.204;16.202;2023-06-24T06:05:54;15.40;99.90
62991;DHT22;49084;48.204;16.202;2023-06-24T06:08:19;15.40;99.90
62991;DHT22;49084;48.204;16.202;2023-06-24T06:10:45;15.40;99.90
62991;DHT22;49084;48.204;16.202;2023-06-24T06:13:10;15.40;99.90
62991;DHT22;49084;48.204;16.202;2023-06-24T06:15:36;15.30;99.90
62991;DHT22;49084;48.204;16.202;2023-06-24T06:18:02;15.40;99.90
62991;DHT22;49084;48.204;16.202;2023-06-24T06:20:27;15.40;99.90
62991;DHT22;49084;48.204;16.202;2023-06-24T06:22:53;15.30;99.90
62991;DHT22;49084;48.204;16.202;2023-06-24T06:25:19;15.30;99.90
62991;DHT22;49084;48.204;16.202;2023-06-24T06:27:44;15.30;99.90
62991;DHT22;49084;48.204;16.202;2023-06-24T06:30:10;15.30;99.90
62991;DHT22;49084;48.204;16.202;2023-06-24T06:32:36;15.30;99.90
62991;DHT22;49084;48.204;16.202;2023-06-24T06:35:02;15.40;99.90
62991;DHT22;49084;48.204;16.202;2023-06-24T06:37:28;15.40;99.90
62991;DHT22;49084;48.204;16.202;2023-06-24T06:39:53;15.40;99.90
62991;DHT22;49084;48.204;16.202;2023-06-24T06:42:19;15.40;99.90
62991;DHT22;49084;48.204;16.202;2023-06-24T06:44:45;15.50;99.90
62991;DHT22;49084;48.204;16.202;2023-06-24T06:47:11;15.40;99.90
62991;DHT22;49084;48.204;16.202;2023-06-24T06:49:36;15.30;99.90
62991;DHT22;49084;48.204;16.202;2023-06-24T06:52:02;15.30;99.90
62991;DHT22;49084;48.204;16.202;2023-06-24T06:54:28;15.30;99.90
62991;DHT22;49084;48.204;16.202;2023-06-24T06:56:53;15.30;99.90
62991;DHT22;49084;48.204;16.202;2023-06-24T06:59:20;15.30;99.90
62991;DHT22;49084;48.204;16.202;2023-06-24T07:01:46;15.30;99.90
62991;DHT22;49084;48.204;16.202;2023-06-24T07:04:12;15.30;99.90
62991;DHT22;49084;48.204;16.202;2023-06-24T07:06:37;15.30;99.90
62991;DHT22;49084;48.204;16.202;2023-06-24T07:09:03;15.30;99.90
62991;DHT22;49084;48.204;16.202;2023-06-24T07:11:29;15.20;99.90
62991;DHT22;49084;48.204;16.202;2023-06-24T07:13:54;15.20;99.90
62991;DHT22;49084;48.204;16.202;2023-06-24T07:16:20;15.10;99.90
62991;DHT22;49084;48.204;16.202;2023-06-24T07:18:45;15.10;99.90
62991;DHT22;49084;48.204;16.202;2023-06-24T07:21:11;15.10;99.90
62991;DHT22;49084;48.204;16.202;2023-06-24T07:23:37;15.10;99.90
62991;DHT22;49084;48.204;16.202;2023-06-24T07:26:02;15.10;99.90
62991;DHT22;49084;48.204;16.202;2023-06-24T07:28:28;15.20;99.90
62991;DHT22;49084;48.204;16.202;2023-06-24T07:30:53;15.20;99.90
62991;DHT22;49084;48.204;16.202;2023-06-24T07:33:19;15.30;99.90
62991;DHT22;49084;48.204;16.202;2023-06-24T07:35:45;15.30;99.90
62991;DHT22;49084;48.204;16.202;2023-06-24T07:38:10;15.30;99.90
62991;DHT22;49084;48.204;16.202;2023-06-24T07:40:36;15.40;99.90
62991;DHT22;49084;48.204;16.202;2023-06-24T07:43:02;15.50;99.90
62991;DHT22;49084;48.204;16.202;2023-06-24T07:45:27;15.60;99.90
62991;DHT22;49084;48.204;16.202;2023-06-24T07:47:53;15.70;99.90
62991;DHT22;49084;48.204;16.202;2023-06-24T07:50:19;15.80;99.90
62991;DHT22;49084;48.204;16.202;2023-06-24T07:52:44;15.90;99.90
62991;DHT22;49084;48.204;16.202;2023-06-24T07:55:11;16.00;99.90
62991;DHT22;49084;48.204;16.202;2023-06-24T07:57:36;16.00;99.90
62991;DHT22;49084;48.204;16.202;2023-06-24T08:00:02;16.00;99.90
62991;DHT22;49084;48.204;16.202;2023-06-24T08:02:28;16.00;99.90
62991;DHT22;49084;48.204;16.202;2023-06-24T08:04:54;16.00;99.90
62991;DHT22;49084;48.204;16.202;2023-06-24T08:07:20;16.10;99.90
62991;DHT22;49084;48.204;16.202;2023-06-24T08:09:45;16.10;99.90
62991;DHT22;49084;48.204;16.202;2023-06-24T08:12:11;16.10;99.90
62991;DHT22;49084;48.204;16.202;2023-06-24T08:14:37;16.20;99.90
62991;DHT22;49084;48.204;16.202;2023-06-24T08:17:03;16.10;99.90
62991;DHT22;49084;48.204;16.202;2023-06-24T08:19:28;16.10;99.90
62991;DHT22;49084;48.204;16.202;2023-06-24T08:21:54;16.00;99.90
62991;DHT22;49084;48.204;16.202;2023-06-24T08:24:20;16.00;99.90
62991;DHT22;49084;48.204;16.202;2023-06-24T08:26:45;16.00;99.90
62991;DHT22;49084;48.204;16.202;2023-06-24T08:29:11;16.00;99.90
62991;DHT22;49084;48.204;16.202;2023-06-24T08:31:37;16.00;99.90
62991;DHT22;49084;48.204;16.202;2023-06-24T08:34:02;16.10;99.90
62991;DHT22;49084;48.204;16.202;2023-06-24T08:36:28;16.00;99.90
62991;DHT22;49084;48.204;16.202;2023-06-24T08:38:57;16.10;99.90
62991;DHT22;49084;48.204;16.202;2023-06-24T08:41:23;16.10;99.90
62991;DHT22;49084;48.204;16.202;2023-06-24T08:43:50;16.10;99.90
62991;DHT22;49084;48.204;16.202;2023-06-24T08:46:16;16.10;99.90
62991;DHT22;49084;48.204;16.202;2023-06-24T08:48:45;16.10;99.90
62991;DHT22;49084;48.204;16.202;2023-06-24T08:51:13;16.10;99.90
62991;DHT22;49084;48.204;16.202;2023-06-24T08:53:42;16.10;99.90
62991;DHT22;49084;48.204;16.202;2023-06-24T08:56:08;16.20;99.90
62991;DHT22;49084;48.204;16.202;2023-06-24T08:58:35;16.20;99.90
62991;DHT22;49084;48.204;16.202;2023-06-24T09:01:02;16.20;99.90
62991;DHT22;49084;48.204;16.202;2023-06-24T09:03:28;16.20;99.90
62991;DHT22;49084;48.204;16.202;2023-06-24T09:05:53;16.20;99.90
62991;DHT22;49084;48.204;16.202;2023-06-24T09:08:19;16.20;99.90
62991;DHT22;49084;48.204;16.202;2023-06-24T09:10:53;16.20;99.90
62991;DHT22;49084;48.204;16.202;2023-06-24T09:13:28;16.30;99.90
62991;DHT22;49084;48.204;16.202;2023-06-24T09:15:59;16.20;99.90
62991;DHT22;49084;48.204;16.202;2023-06-24T09:18:31;16.20;99.90
62991;DHT22;49084;48.204;16.202;2023-06-24T09:20:57;16.20;99.90
62991;DHT22;49084;48.204;16.202;2023-06-24T09:23:25;16.10;99.90
62991;DHT22;49084;48.204;16.202;2023-06-24T09:25:58;16.10;99.90
62991;DHT22;49084;48.204;16.202;2023-06-24T09:28:27;16.20;99.90
62991;DHT22;49084;48.204;16.202;2023-06-24T09:31:26;16.10;99.90
62991;DHT22;49084;48.204;16.202;2023-06-24T09:33:45;16.10;99.90
62991;DHT22;49084;48.204;16.202;2023-06-24T09:36:13;16.20;99.90
62991;DHT22;49084;48.204;16.202;2023-06-24T09:38:41;16.10;99.90
62991;DHT22;49084;48.204;16.202;2023-06-24T09:41:08;16.10;99.90
62991;DHT22;49084;48.204;16.202;2023-06-24T09:43:37;16.10;99.90
62991;DHT22;49084;48.204;16.202;2023-06-24T09:46:05;16.10;99.90
62991;DHT22;49084;48.204;16.202;2023-06-24T09:48:33;16.10;99.90
62991;DHT22;49084;48.204;16.202;2023-06-24T09:51:03;16.10;99.90
62991;DHT22;49084;48.204;16.202;2023-06-24T09:53:33;16.00;99.90
62991;DHT22;49084;48.204;16.202;2023-06-24T09:56:03;16.00;99.90
62991;DHT22;49084;48.204;16.202;2023-06-24T09:58:36;16.00;99.90
62991;DHT22;49084;48.204;16.202;2023-06-24T10:01:04;16.00;99.90
62991;DHT22;49084;48.204;16.202;2023-06-24T10:03:33;16.00;99.90
62991;DHT22;49084;48.204;16.202;2023-06-24T10:06:01;15.90;99.90
62991;DHT22;49084;48.204;16.202;2023-06-24T10:08:30;15.90;99.90
62991;DHT22;49084;48.204;16.202;2023-06-24T10:10:56;15.90;99.90
62991;DHT22;49084;48.204;16.202;2023-06-24T10:13:22;15.80;99.90
62991;DHT22;49084;48.204;16.202;2023-06-24T10:15:49;15.80;99.90
62991;DHT22;49084;48.204;16.202;2023-06-24T10:18:44;15.80;99.90
62991;DHT22;49084;48.204;16.202;2023-06-24T10:21:10;15.80;99.90
62991;DHT22;49084;48.204;16.202;2023-06-24T10:23:41;15.80;99.90
62991;DHT22;49084;48.204;16.202;2023-06-24T10:26:22;15.80;99.90
62991;DHT22;49084;48.204;16.202;2023-06-24T10:39:59;15.80;99.90
62991;DHT22;49084;48.204;16.202;2023-06-24T10:45:15;15.90;99.90
62991;DHT22;49084;48.204;16.202;2023-06-24T10:47:51;15.90;99.90
62991;DHT22;49084;48.204;16.202;2023-06-24T10:50:25;16.00;99.90
62991;DHT22;49084;48.204;16.202;2023-06-24T10:52:52;16.00;99.90
62991;DHT22;49084;48.204;16.202;2023-06-24T10:55:22;16.10;99.90
62991;DHT22;49084;48.204;16.202;2023-06-24T10:57:48;16.10;99.90
62991;DHT22;49084;48.204;16.202;2023-06-24T11:00:14;16.20;99.90
62991;DHT22;49084;48.204;16.202;2023-06-24T11:02:40;16.20;99.90
62991;DHT22;49084;48.204;16.202;2023-06-24T11:05:07;16.20;99.90
62991;DHT22;49084;48.204;16.202;2023-06-24T11:07:34;16.30;99.90
62991;DHT22;49084;48.204;16.202;2023-06-24T11:10:13;16.40;99.90
62991;DHT22;49084;48.204;16.202;2023-06-24T11:12:40;16.40;99.90
62991;DHT22;49084;48.204;16.202;2023-06-24T11:15:08;16.40;99.90
62991;DHT22;49084;48.204;16.202;2023-06-24T11:17:34;16.50;99.90
62991;DHT22;49084;48.204;16.202;2023-06-24T11:20:02;16.40;99.90
62991;DHT22;49084;48.204;16.202;2023-06-24T11:22:31;16.40;99.90
62991;DHT22;49084;48.204;16.202;2023-06-24T11:24:57;16.30;99.90
62991;DHT22;49084;48.204;16.202;2023-06-24T11:29:52;16.20;99.90
62991;DHT22;49084;48.204;16.202;2023-06-24T11:32:18;16.20;99.90
62991;DHT22;49084;48.204;16.202;2023-06-24T11:34:44;16.20;99.90
62991;DHT22;49084;48.204;16.202;2023-06-24T11:37:11;16.20;99.90
62991;DHT22;49084;48.204;16.202;2023-06-24T11:39:38;16.20;99.90
62991;DHT22;49084;48.204;16.202;2023-06-24T11:42:06;16.20;99.90
62991;DHT22;49084;48.204;16.202;2023-06-24T11:44:32;16.20;99.90
62991;DHT22;49084;48.204;16.202;2023-06-24T11:47:05;16.20;99.90
62991;DHT22;49084;48.204;16.202;2023-06-24T11:49:31;16.20;99.90
62991;DHT22;49084;48.204;16.202;2023-06-24T11:51:57;16.10;99.90
62991;DHT22;49084;48.204;16.202;2023-06-24T11:54:22;16.10;99.90
62991;DHT22;49084;48.204;16.202;2023-06-24T11:56:50;16.10;99.90
62991;DHT22;49084;48.204;16.202;2023-06-24T11:59:26;16.10;99.90
62991;DHT22;49084;48.204;16.202;2023-06-24T12:01:54;16.20;99.90
62991;DHT22;49084;48.204;16.202;2023-06-24T12:04:20;16.10;99.90
62991;DHT22;49084;48.204;16.202;2023-06-24T12:06:46;16.20;99.90
62991;DHT22;49084;48.204;16.202;2023-06-24T12:09:11;16.20;99.90
62991;DHT22;49084;48.204;16.202;2023-06-24T12:11:38;16.20;99.90
62991;DHT22;49084;48.204;16.202;2023-06-24T12:14:05;16.20;99.90
62991;DHT22;49084;48.204;16.202;2023-06-24T12:16:31;16.20;99.90
62991;DHT22;49084;48.204;16.202;2023-06-24T12:18:57;16.20;99.90
62991;DHT22;49084;48.204;16.202;2023-06-24T12:21:22;16.20;99.90
62991;DHT22;49084;48.204;16.202;2023-06-24T12:23:48;16.20;99.90
62991;DHT22;49084;48.204;16.202;2023-06-24T12:26:14;16.20;99.90
62991;DHT22;49084;48.204;16.202;2023-06-24T12:28:39;16.30;99.90
62991;DHT22;49084;48.204;16.202;2023-06-24T12:31:05;16.40;99.90
62991;DHT22;49084;48.204;16.202;2023-06-24T12:33:31;16.60;99.90
62991;DHT22;49084;48.204;16.202;2023-06-24T12:35:56;16.60;99.90
62991;DHT22;49084;48.204;16.202;2023-06-24T12:38:22;16.70;99.90
62991;DHT22;49084;48.204;16.202;2023-06-24T12:40:48;16.70;99.90
62991;DHT22;49084;48.204;16.202;2023-06-24T12:43:14;16.60;99.90
62991;DHT22;49084;48.204;16.202;2023-06-24T12:45:41;16.60;99.90
62991;DHT22;49084;48.204;16.202;2023-06-24T12:48:09;16.60;99.90
62991;DHT22;49084;48.204;16.202;2023-06-24T12:50:35;16.50;99.90
62991;DHT22;49084;48.204;16.202;2023-06-24T12:53:01;16.50;99.90
62991;DHT22;49084;48.204;16.202;2023-06-24T12:55:27;16.40;99.90
62991;DHT22;49084;48.204;16.202;2023-06-24T12:57:53;16.50;99.90
62991;DHT22;49084;48.204;16.202;2023-06-24T13:00:22;16.60;99.90
62991;DHT22;49084;48.204;16.202;2023-06-24T13:02:49;16.60;99.90
62991;DHT22;49084;48.204;16.202;2023-06-24T13:05:15;16.70;99.90
62991;DHT22;49084;48.204;16.202;2023-06-24T13:07:41;16.70;99.90
62991;DHT22;49084;48.204;16.202;2023-06-24T13:10:07;16.80;99.90
62991;DHT22;49084;48.204;16.202;2023-06-24T13:12:33;16.80;99.90
62991;DHT22;49084;48.204;16.202;2023-06-24T13:14:59;17.00;99.90
62991;DHT22;49084;48.204;16.202;2023-06-24T13:17:24;17.00;99.90
62991;DHT22;49084;48.204;16.202;2023-06-24T13:19:51;17.10;99.90
62991;DHT22;49084;48.204;16.202;2023-06-24T13:22:16;17.00;99.90
62991;DHT22;49084;48.204;16.202;2023-06-24T13:24:42;17.10;99.90
62991;DHT22;49084;48.204;16.202;2023-06-24T13:27:08;17.20;99.90
62991;DHT22;49084;48.204;16.202;2023-06-24T13:29:33;17.20;99.90
62991;DHT22;49084;48.204;16.202;2023-06-24T13:31:59;17.40;99.90
62991;DHT22;49084;48.204;16.202;2023-06-24T13:34:25;17.50;99.90
62991;DHT22;49084;48.204;16.202;2023-06-24T13:36:50;17.60;99.90
62991;DHT22;49084;48.204;16.202;2023-06-24T13:39:16;17.60;99.90
62991;DHT22;49084;48.204;16.202;2023-06-24T13:41:47;17.60;99.90
62991;DHT22;49084;48.204;16.202;2023-06-24T13:44:13;17.70;99.90
62991;DHT22;49084;48.204;16.202;2023-06-24T13:46:39;17.60;99.90
62991;DHT22;49084;48.204;16.202;2023-06-24T13:49:05;17.60;99.90
62991;DHT22;49084;48.204;16.202;2023-06-24T13:51:30;17.70;99.90
62991;DHT22;49084;48.204;16.202;2023-06-24T13:53:56;17.80;99.90
62991;DHT22;49084;48.204;16.202;2023-06-24T13:56:23;17.70;99.90
62991;DHT22;49084;48.204;16.202;2023-06-24T13:58:50;17.70;99.90
62991;DHT22;49084;48.204;16.202;2023-06-24T14:01:16;17.70;99.90
62991;DHT22;49084;48.204;16.202;2023-06-24T14:03:42;17.60;99.90
62991;DHT22;49084;48.204;16.202;2023-06-24T14:06:08;17.60;99.90
62991;DHT22;49084;48.204;16.202;2023-06-24T14:08:34;17.60;99.90
62991;DHT22;49084;48.204;16.202;2023-06-24T14:11:00;17.60;99.90
62991;DHT22;49084;48.204;16.202;2023-06-24T14:13:27;17.50;99.90
62991;DHT22;49084;48.204;16.202;2023-06-24T14:15:54;17.50;99.90
62991;DHT22;49084;48.204;16.202;2023-06-24T14:18:20;17.60;99.90
62991;DHT22;49084;48.204;16.202;2023-06-24T14:20:46;17.60;99.90
62991;DHT22;49084;48.204;16.202;2023-06-24T14:23:11;17.60;99.90
62991;DHT22;49084;48.204;16.202;2023-06-24T14:25:37;17.70;99.90
62991;DHT22;49084;48.204;16.202;2023-06-24T14:28:04;17.80;99.90
62991;DHT22;49084;48.204;16.202;2023-06-24T14:30:30;17.80;99.90
62991;DHT22;49084;48.204;16.202;2023-06-24T14:32:56;17.90;99.90
62991;DHT22;49084;48.204;16.202;2023-06-24T14:35:21;17.90;99.90
62991;DHT22;49084;48.204;16.202;2023-06-24T14:37:47;18.00;99.90
62991;DHT22;49084;48.204;16.202;2023-06-24T14:40:13;18.00;99.90
62991;DHT22;49084;48.204;16.202;2023-06-24T14:42:38;18.10;99.90
62991;DHT22;49084;48.204;16.202;2023-06-24T14:45:04;18.30;99.90
62991;DHT22;49084;48.204;16.202;2023-06-24T14:47:30;18.50;99.90
62991;DHT22;49084;48.204;16.202;2023-06-24T14:49:56;18.60;99.90
62991;DHT22;49084;48.204;16.202;2023-06-24T14:52:22;18.80;99.90
62991;DHT22;49084;48.204;16.202;2023-06-24T14:54:48;18.90;99.90
62991;DHT22;49084;48.204;16.202;2023-06-24T14:57:13;18.90;99.90
62991;DHT22;49084;48.204;16.202;2023-06-24T14:59:41;18.80;99.90
62991;DHT22;49084;48.204;16.202;2023-06-24T15:02:07;18.70;99.90
62991;DHT22;49084;48.204;16.202;2023-06-24T15:04:32;18.70;99.90
62991;DHT22;49084;48.204;16.202;2023-06-24T15:06:59;18.70;99.90
62991;DHT22;49084;48.204;16.202;2023-06-24T15:09:25;18.80;99.90
62991;DHT22;49084;48.204;16.202;2023-06-24T15:11:52;18.80;99.90
62991;DHT22;49084;48.204;16.202;2023-06-24T15:14:18;18.80;99.90
62991;DHT22;49084;48.204;16.202;2023-06-24T15:16:44;18.80;99.90
62991;DHT22;49084;48.204;16.202;2023-06-24T15:19:09;18.80;99.90
62991;DHT22;49084;48.204;16.202;2023-06-24T15:21:35;18.90;99.90
62991;DHT22;49084;48.204;16.202;2023-06-24T15:24:01;19.00;99.90
62991;DHT22;49084;48.204;16.202;2023-06-24T15:26:26;19.00;99.90
62991;DHT22;49084;48.204;16.202;2023-06-24T15:28:52;19.00;99.90
62991;DHT22;49084;48.204;16.202;2023-06-24T15:31:19;19.10;99.90
62991;DHT22;49084;48.204;16.202;2023-06-24T15:33:44;19.20;99.90
62991;DHT22;49084;48.204;16.202;2023-06-24T15:36:10;19.40;99.90
62991;DHT22;49084;48.204;16.202;2023-06-24T15:38:36;19.50;99.90
62991;DHT22;49084;48.204;16.202;2023-06-24T15:41:01;20.20;99.90